SCVD/ZAL METAR and TAF weather

Enter ICAO airport designator
Station Type Date Time Source
SCVD METAR 2021/08/04 23:00 UTC NOAA

SCVD 042300Z 34009KT 310V030 9999 BKN010 OVC013 11/10 Q1014


Station Type Date Time Source
SCVD Decoded METAR 2021/08/04 23:00 UTC NOAA

Valdivia, Chile (SCVD) 39-37S 073-05W
Aug 04, 2021 - 07:00 PM EDT / 2021.08.04 2300 UTC
Wind: from the NNW (340 degrees) at 10 MPH (9 KT) (direction variable):0
Visibility: greater than 7 mile(s):0
Sky conditions: overcast
Temperature: 51 F (11 C)
Dew Point: 50 F (10 C)
Relative Humidity: 93%
Pressure (altimeter): 29.94 in. Hg (1014 hPa)
ob: SCVD 042300Z 34009KT 310V030 9999 BKN010 OVC013 11/10 Q1014
cycle: 23

Station Type Date Time Source
SCVD TAF 2021/08/04 12:00 UTC NOAA

TAF SCVD 041030Z 0412/0500 VRB02KT 0600 FG OVC002 TN03/0412Z TX18/0419Z
BECMG 0414/0415 4000 BR OVC005
BECMG 0415/0417 34005KT CAVOK
BECMG 0422/0500 OVC015

Example: see airport list